Time;durP1;ratioP1;P1;durP2;ratioP2;P2;SDS_P1;SDS_P2;PMS_P1;PMS_P2;Temp;Humidity;BMP_temperature;BMP_pressure;BME280_temperature;BME280_humidity;BME280_pressure;Samples;Min_cycle;Max_cycle;Signal;HPM_P1;HPM_P2
2024/04/09 00:00:45;;;;;;;7.80;2.20;;;23.20;87.00;;;;;;5474878;26;20092;-58
2024/04/09 00:03:11;;;;;;;8.68;2.47;;;23.20;87.00;;;;;;5474036;26;19998;-58
2024/04/09 00:05:40;;;;;;;8.75;2.38;;;23.20;86.90;;;;;;5474559;26;20002;-58
2024/04/09 00:08:07;;;;;;;9.07;2.30;;;23.10;86.70;;;;;;5480286;26;20521;-59
2024/04/09 00:10:36;;;;;;;8.00;2.55;;;23.20;86.80;;;;;;5476595;26;19998;-58
2024/04/09 00:13:04;;;;;;;8.07;2.40;;;23.10;86.70;;;;;;5479145;26;20002;-58
2024/04/09 00:15:29;;;;;;;5.63;2.20;;;23.20;86.80;;;;;;5467784;26;20003;-58
2024/04/09 00:17:56;;;;;;;7.55;2.20;;;23.20;87.30;;;;;;5481223;26;20417;-59
2024/04/09 00:20:24;;;;;;;7.72;2.67;;;23.20;86.70;;;;;;5482825;26;20010;-58
2024/04/09 00:22:54;;;;;;;7.07;2.47;;;23.10;86.60;;;;;;5477713;26;20562;-58
2024/04/09 00:25:22;;;;;;;6.45;2.20;;;23.10;86.60;;;;;;5477797;26;20002;-58
2024/04/09 00:27:55;;;;;;;7.45;2.10;;;23.10;86.60;;;;;;5478232;26;19998;-58
2024/04/09 00:30:21;;;;;;;10.90;2.47;;;23.10;86.60;;;;;;5477855;26;20013;-58
2024/04/09 00:32:51;;;;;;;7.22;2.20;;;23.10;86.60;;;;;;5476384;26;20021;-58
2024/04/09 00:35:21;;;;;;;6.57;2.33;;;23.10;86.60;;;;;;5482268;26;19998;-58
2024/04/09 00:37:51;;;;;;;;;;;23.10;86.60;;;;;;5478432;26;19998;-58
2024/04/09 00:40:21;;;;;;;7.25;2.03;;;23.10;86.50;;;;;;5482699;26;19930;-59
2024/04/09 00:42:49;;;;;;;;;;;23.10;86.30;;;;;;5479617;26;20016;-58
2024/04/09 00:45:19;;;;;;;10.90;2.50;;;23.10;86.20;;;;;;5478698;26;20020;-58
2024/04/09 00:47:50;;;;;;;8.02;2.70;;;23.10;86.20;;;;;;5479959;26;20006;-57
2024/04/09 00:50:18;;;;;;;8.55;2.60;;;23.10;86.10;;;;;;5474566;26;20006;-58
2024/04/09 00:52:45;;;;;;;7.18;2.35;;;23.10;86.20;;;;;;5477080;26;20008;-58
2024/04/09 00:55:14;;;;;;;8.13;2.78;;;23.10;86.00;;;;;;5473866;26;19998;-58
2024/04/09 00:57:48;;;;;;;7.63;2.05;;;23.10;85.80;;;;;;5473193;26;20026;-58
2024/04/09 01:00:17;;;;;;;9.57;3.00;;;23.10;85.80;;;;;;5476296;26;20062;-58
2024/04/09 01:02:48;;;;;;;9.35;2.38;;;23.10;85.80;;;;;;5476148;26;20002;-58
2024/04/09 01:05:15;;;;;;;9.63;2.35;;;23.00;85.50;;;;;;5473700;26;20702;-58
2024/04/09 01:07:42;;;;;;;6.80;2.40;;;23.00;85.30;;;;;;5478700;26;20005;-58
2024/04/09 01:10:07;;;;;;;10.02;2.38;;;23.00;85.10;;;;;;5478911;26;19998;-58
2024/04/09 01:12:34;;;;;;;9.23;2.60;;;23.00;85.10;;;;;;5480097;26;19998;-58
2024/04/09 01:14:59;;;;;;;11.02;2.63;;;23.00;85.10;;;;;;5481640;26;20006;-58
2024/04/09 01:17:25;;;;;;;9.50;2.10;;;23.00;85.20;;;;;;5479585;26;20073;-58
2024/04/09 01:19:51;;;;;;;7.90;2.15;;;23.00;85.30;;;;;;5480891;26;20653;-58
2024/04/09 01:22:17;;;;;;;7.68;2.47;;;23.00;85.10;;;;;;5507767;26;19998;-58
2024/04/09 01:24:42;;;;;;;8.05;2.10;;;23.00;85.10;;;;;;5473469;26;20047;-58
2024/04/09 01:27:14;;;;;;;7.65;2.20;;;23.00;85.10;;;;;;5480586;26;20789;-58
2024/04/09 01:29:41;;;;;;;11.07;2.13;;;22.90;84.80;;;;;;5477845;26;19998;-58
2024/04/09 01:32:07;;;;;;;12.40;2.60;;;22.90;84.90;;;;;;5477066;26;19998;-58
2024/04/09 01:34:35;;;;;;;11.30;2.42;;;22.90;84.60;;;;;;5475015;26;20063;-58
2024/04/09 01:37:01;;;;;;;9.48;2.30;;;22.90;84.50;;;;;;5476949;26;20002;-58
2024/04/09 01:39:27;;;;;;;8.50;2.22;;;22.90;84.30;;;;;;5475220;26;20066;-58
2024/04/09 01:41:53;;;;;;;9.13;2.78;;;22.90;84.30;;;;;;5481767;26;20014;-58
2024/04/09 01:44:19;;;;;;;7.65;2.00;;;22.90;84.30;;;;;;5479082;26;19994;-58
2024/04/09 01:46:46;;;;;;;11.63;2.55;;;22.90;84.20;;;;;;5477509;26;20668;-58
2024/04/09 01:49:12;;;;;;;6.88;2.00;;;22.90;84.10;;;;;;5479933;26;20966;-58
2024/04/09 01:51:37;;;;;;;11.65;2.53;;;22.90;84.10;;;;;;5470212;26;19998;-58
2024/04/09 01:54:04;;;;;;;11.10;2.50;;;22.90;84.00;;;;;;5470388;26;20013;-58
2024/04/09 01:56:30;;;;;;;8.48;2.35;;;22.90;84.00;;;;;;5478613;26;19998;-58
2024/04/09 01:58:56;;;;;;;7.00;2.28;;;22.90;83.90;;;;;;5480256;26;20066;-58
2024/04/09 02:01:21;;;;;;;8.23;2.22;;;22.90;83.80;;;;;;5473454;26;19998;-59
2024/04/09 02:03:49;;;;;;;12.20;2.78;;;22.90;83.70;;;;;;5479070;26;20818;-59
2024/04/09 02:06:20;;;;;;;12.32;2.47;;;22.80;83.50;;;;;;5475218;26;20516;-59
2024/04/09 02:08:46;;;;;;;9.35;2.13;;;22.80;83.60;;;;;;5468350;26;19999;-58
2024/04/09 02:11:12;;;;;;;12.10;2.35;;;22.80;83.70;;;;;;5500290;26;20037;-59
2024/04/09 02:13:40;;;;;;;11.93;2.67;;;22.80;83.60;;;;;;5466379;26;20029;-59
2024/04/09 02:16:09;;;;;;;9.27;2.45;;;22.80;83.60;;;;;;5464728;26;19998;-58
2024/04/09 02:18:36;;;;;;;8.63;2.25;;;22.80;83.70;;;;;;5463005;26;20046;-59
2024/04/09 02:21:06;;;;;;;9.15;2.22;;;22.80;83.80;;;;;;5458819;26;20002;-59
2024/04/09 02:23:33;;;;;;;9.95;2.47;;;22.80;83.70;;;;;;5471099;26;20575;-59
2024/04/09 02:25:58;;;;;;;7.47;2.20;;;22.80;83.80;;;;;;5472893;26;20003;-58
2024/04/09 02:28:24;;;;;;;9.23;2.33;;;22.80;83.90;;;;;;5468267;26;20334;-59
2024/04/09 02:30:50;;;;;;;9.50;2.40;;;22.80;83.90;;;;;;5460943;26;20010;-58
2024/04/09 02:33:18;;;;;;;7.97;2.50;;;22.80;84.00;;;;;;5474843;26;20002;-59
2024/04/09 02:36:01;;;;;;;10.98;2.47;;;22.80;84.20;;;;;;5471848;26;20318;-59
2024/04/09 02:38:29;;;;;;;10.43;2.30;;;22.80;84.20;;;;;;5472492;26;20002;-58
2024/04/09 02:40:55;;;;;;;8.77;2.40;;;22.80;84.20;;;;;;5469227;26;20361;-59
2024/04/09 02:43:21;;;;;;;8.57;2.20;;;22.80;84.30;;;;;;5482638;26;20013;-59
2024/04/09 02:45:50;;;;;;;6.88;2.13;;;22.80;84.30;;;;;;5466671;26;20009;-59
2024/04/09 02:48:16;;;;;;;9.02;2.13;;;22.70;84.40;;;;;;5470395;26;19994;-59
2024/04/09 02:50:59;;;;;;;8.98;2.70;;;22.70;84.40;;;;;;5469824;26;20481;-58
2024/04/09 02:53:25;;;;;;;9.85;2.72;;;22.70;84.40;;;;;;5472257;26;20010;-59
2024/04/09 02:56:00;;;;;;;9.02;2.45;;;22.70;84.40;;;;;;5470462;26;20010;-58
2024/04/09 02:58:29;;;;;;;9.55;2.72;;;22.70;84.40;;;;;;5471427;26;20411;-58
2024/04/09 03:00:56;;;;;;;7.75;2.53;;;22.70;84.50;;;;;;5469999;26;19998;-59
2024/04/09 03:03:24;;;;;;;14.60;2.92;;;22.70;84.60;;;;;;5466439;26;20382;-59
2024/04/09 03:05:50;;;;;;;12.57;2.58;;;22.70;84.70;;;;;;5474753;26;19995;-59
2024/04/09 03:08:18;;;;;;;8.27;2.25;;;22.70;84.70;;;;;;5474488;26;20066;-59
2024/04/09 03:10:43;;;;;;;6.43;2.40;;;22.70;84.70;;;;;;5473558;26;20001;-59
2024/04/09 03:13:09;;;;;;;8.95;2.42;;;22.70;84.80;;;;;;5473369;26;20339;-58
2024/04/09 03:15:37;;;;;;;10.80;2.10;;;22.70;84.70;;;;;;5470733;26;20049;-59
2024/04/09 03:18:03;;;;;;;8.25;2.35;;;22.70;84.60;;;;;;5466539;26;20009;-59
2024/04/09 03:20:28;;;;;;;8.45;2.50;;;22.60;84.50;;;;;;5464623;26;19994;-59
2024/04/09 03:22:54;;;;;;;8.20;2.40;;;22.60;84.50;;;;;;5474201;26;20013;-59
2024/04/09 03:25:20;;;;;;;7.78;2.33;;;22.60;84.40;;;;;;5475084;26;20002;-59
2024/04/09 03:27:47;;;;;;;8.95;2.25;;;22.60;84.30;;;;;;5473074;26;20005;-58
2024/04/09 03:30:12;;;;;;;11.13;2.55;;;22.60;84.40;;;;;;5472430;26;20010;-59
2024/04/09 03:32:38;;;;;;;6.63;2.00;;;22.60;84.40;;;;;;5470032;26;20769;-59
2024/04/09 03:35:04;;;;;;;7.45;2.28;;;22.60;84.40;;;;;;5474246;26;19998;-58
2024/04/09 03:37:30;;;;;;;8.25;2.10;;;22.60;84.40;;;;;;5473460;26;20006;-59
2024/04/09 03:39:56;;;;;;;7.93;2.47;;;22.60;84.40;;;;;;5476641;26;20418;-59
2024/04/09 03:42:21;;;;;;;9.02;2.40;;;22.60;84.40;;;;;;5474506;26;20034;-59
2024/04/09 03:44:47;;;;;;;8.32;2.40;;;22.60;84.40;;;;;;5465160;26;20460;-59
2024/04/09 03:47:13;;;;;;;7.00;2.38;;;22.60;84.40;;;;;;5466618;26;20011;-59
2024/04/09 03:49:38;;;;;;;6.03;2.10;;;22.60;84.40;;;;;;5465262;26;20457;-59
2024/04/09 03:52:05;;;;;;;6.68;2.38;;;22.60;84.40;;;;;;5471628;26;20010;-59
2024/04/09 03:54:34;;;;;;;6.53;2.20;;;22.50;84.30;;;;;;5467930;26;20010;-59
2024/04/09 03:57:03;;;;;;;8.95;2.28;;;22.60;84.40;;;;;;5475381;26;20010;-58
2024/04/09 03:59:33;;;;;;;8.63;2.20;;;22.60;84.40;;;;;;5477268;26;20002;-59
2024/04/09 04:01:59;;;;;;;5.35;1.90;;;22.60;84.50;;;;;;5460255;26;20003;-59
2024/04/09 04:04:25;;;;;;;8.20;2.42;;;22.50;84.40;;;;;;5479675;26;20009;-59
2024/04/09 04:06:50;;;;;;;8.07;2.33;;;22.50;84.40;;;;;;5473639;26;20002;-59
2024/04/09 04:09:16;;;;;;;5.72;1.88;;;22.50;84.90;;;;;;5469074;26;20002;-58
2024/04/09 04:11:42;;;;;;;7.20;2.10;;;22.60;84.40;;;;;;5467185;26;19999;-59
2024/04/09 04:14:07;;;;;;;7.35;1.95;;;22.50;84.30;;;;;;5481362;26;20066;-59
2024/04/09 04:16:33;;;;;;;6.70;1.95;;;22.60;84.30;;;;;;5465540;26;19999;-58
2024/04/09 04:18:58;;;;;;;8.75;2.30;;;22.60;84.20;;;;;;5466439;26;20318;-59
2024/04/09 04:21:24;;;;;;;13.18;2.40;;;22.60;84.40;;;;;;5459029;26;20000;-59
2024/04/09 04:23:51;;;;;;;8.70;3.38;;;22.60;84.80;;;;;;5472520;26;20091;-58
2024/04/09 04:26:25;;;;;;;7.60;2.83;;;22.60;85.90;;;;;;5461217;26;20034;-59
2024/04/09 04:28:52;;;;;;;8.63;2.17;;;22.60;86.90;;;;;;5458107;26;20006;-58
2024/04/09 04:31:22;;;;;;;8.77;2.67;;;22.60;87.30;;;;;;5463235;26;20066;-59
2024/04/09 04:33:52;;;;;;;6.70;2.10;;;22.60;87.40;;;;;;5455672;26;19999;-58
2024/04/09 04:36:20;;;;;;;7.45;2.20;;;22.60;87.10;;;;;;5472027;26;20009;-59
2024/04/09 04:38:47;;;;;;;7.32;2.53;;;22.60;86.90;;;;;;5473861;26;20310;-58
2024/04/09 04:41:13;;;;;;;9.05;2.25;;;22.60;86.70;;;;;;5479455;26;20065;-59
2024/04/09 04:43:39;;;;;;;7.20;2.28;;;22.60;86.70;;;;;;5471876;26;20079;-59
2024/04/09 04:46:05;;;;;;;7.57;2.22;;;22.60;86.60;;;;;;5464343;26;20026;-59
2024/04/09 04:48:31;;;;;;;9.60;2.28;;;22.60;86.50;;;;;;5470312;26;20012;-58
2024/04/09 04:50:57;;;;;;;7.45;2.22;;;22.60;86.40;;;;;;5468847;26;20009;-59
2024/04/09 04:53:23;;;;;;;7.32;1.85;;;22.60;86.20;;;;;;5467353;26;20033;-58
2024/04/09 04:55:49;;;;;;;6.82;1.80;;;22.70;86.20;;;;;;5459063;26;20071;-58
2024/04/09 04:58:15;;;;;;;6.68;2.00;;;22.70;86.30;;;;;;5469045;26;20028;-58
2024/04/09 05:00:41;;;;;;;8.95;2.22;;;22.70;86.30;;;;;;5452548;26;20006;-57
2024/04/09 05:03:07;;;;;;;8.50;2.35;;;22.70;86.20;;;;;;5466409;26;19999;-58
2024/04/09 05:05:38;;;;;;;8.90;2.00;;;22.70;86.30;;;;;;5472652;26;20038;-57
2024/04/09 05:08:04;;;;;;;6.15;1.85;;;22.70;86.50;;;;;;5470621;26;20067;-58
2024/04/09 05:10:30;;;;;;;7.32;2.00;;;22.70;86.60;;;;;;5460622;26;20367;-58
2024/04/09 05:12:56;;;;;;;7.93;1.90;;;22.70;86.60;;;;;;5470606;26;20002;-58
2024/04/09 05:15:22;;;;;;;8.65;1.90;;;22.70;86.60;;;;;;5468756;26;20016;-58
2024/04/09 05:17:52;;;;;;;7.05;2.17;;;22.70;86.50;;;;;;5459118;26;19995;-58
2024/04/09 05:20:18;;;;;;;7.35;2.17;;;22.70;86.50;;;;;;5462310;26;20010;-57
2024/04/09 05:22:48;;;;;;;6.07;2.15;;;22.70;86.40;;;;;;5466466;26;19999;-58
2024/04/09 05:25:15;;;;;;;5.82;1.80;;;22.70;86.50;;;;;;5454801;26;20014;-58
2024/04/09 05:27:43;;;;;;;6.60;1.90;;;22.70;86.50;;;;;;5453117;26;20537;-58
2024/04/09 05:30:10;;;;;;;8.85;1.90;;;22.70;86.30;;;;;;5468555;26;20337;-58
2024/04/09 05:32:41;;;;;;;6.25;1.70;;;22.70;86.40;;;;;;5455695;26;20342;-57
2024/04/09 05:35:08;;;;;;;8.57;2.17;;;22.70;86.50;;;;;;5469841;26;20026;-57
2024/04/09 05:37:34;;;;;;;8.60;1.98;;;22.70;86.50;;;;;;5470879;26;20624;-57
2024/04/09 05:40:00;;;;;;;9.55;2.10;;;22.70;86.90;;;;;;5464834;26;20010;-57
2024/04/09 05:42:25;;;;;;;9.48;1.85;;;22.70;87.00;;;;;;5464813;26;20042;-58
2024/04/09 05:44:51;;;;;;;7.95;1.98;;;22.70;86.90;;;;;;5465048;26;20003;-57
2024/04/09 05:47:20;;;;;;;9.07;2.33;;;22.70;87.00;;;;;;5453943;26;20021;-58
2024/04/09 05:49:47;;;;;;;11.57;2.20;;;22.70;87.00;;;;;;5463897;26;19998;-58
2024/04/09 05:52:12;;;;;;;7.28;2.00;;;22.70;87.10;;;;;;5459722;26;20014;-58
2024/04/09 05:54:43;;;;;;;6.20;1.85;;;22.70;87.20;;;;;;5460873;26;20541;-57
2024/04/09 05:57:10;;;;;;;8.52;1.95;;;22.70;87.10;;;;;;5467195;26;19998;-57
2024/04/09 05:59:35;;;;;;;5.90;1.85;;;22.70;87.00;;;;;;5465411;26;19999;-57
2024/04/09 06:02:01;;;;;;;6.35;1.65;;;22.70;87.00;;;;;;5468774;26;20899;-57
2024/04/09 06:04:26;;;;;;;7.85;2.15;;;22.70;87.00;;;;;;5466150;26;20010;-57
2024/04/09 06:06:52;;;;;;;6.25;1.60;;;22.70;87.00;;;;;;5467397;26;20407;-57
2024/04/09 06:09:19;;;;;;;9.40;2.22;;;22.70;86.90;;;;;;5462834;26;20025;-57
2024/04/09 06:11:44;;;;;;;6.00;1.90;;;22.70;87.00;;;;;;5457172;26;21029;-57
2024/04/09 06:14:12;;;;;;;6.53;2.10;;;22.70;86.90;;;;;;5461728;26;19995;-57
2024/04/09 06:16:40;;;;;;;6.65;1.83;;;22.60;86.90;;;;;;5462979;26;20079;-57
2024/04/09 06:19:06;;;;;;;6.55;1.83;;;22.60;86.90;;;;;;5463470;26;20014;-57
2024/04/09 06:21:31;;;;;;;6.43;1.80;;;22.70;87.00;;;;;;5465911;26;20014;-57
2024/04/09 06:23:57;;;;;;;7.43;1.88;;;22.60;86.90;;;;;;5464522;26;20002;-58
2024/04/09 06:26:23;;;;;;;7.55;2.00;;;22.60;86.90;;;;;;5470793;26;19994;-57
2024/04/09 06:28:53;;;;;;;8.18;2.00;;;22.60;86.90;;;;;;5466890;26;20690;-57
2024/04/09 06:31:19;;;;;;;7.43;1.80;;;22.60;86.80;;;;;;5465290;26;20010;-57
2024/04/09 06:33:46;;;;;;;5.22;1.55;;;22.60;86.80;;;;;;5465799;26;19994;-57
2024/04/09 06:36:12;;;;;;;7.18;1.58;;;22.60;86.80;;;;;;5470135;26;20013;-57
2024/04/09 06:38:38;;;;;;;6.22;1.77;;;22.60;86.70;;;;;;5462859;26;20022;-57
2024/04/09 06:41:04;;;;;;;9.18;2.13;;;22.60;86.80;;;;;;5468139;26;19994;-57
2024/04/09 06:43:30;;;;;;;8.25;2.10;;;22.60;86.80;;;;;;5462873;26;20007;-57
2024/04/09 06:45:56;;;;;;;7.00;1.90;;;22.60;86.80;;;;;;5466928;26;19999;-57
2024/04/09 06:48:21;;;;;;;5.65;1.55;;;22.60;86.70;;;;;;5461570;26;20438;-57
2024/04/09 06:50:47;;;;;;;7.20;2.00;;;22.60;86.80;;;;;;5462519;26;19998;-57
2024/04/09 06:53:12;;;;;;;7.28;2.10;;;22.60;86.80;;;;;;5463829;26;20638;-57
2024/04/09 06:55:38;;;;;;;5.97;1.92;;;22.60;86.90;;;;;;5468202;26;19994;-57
2024/04/09 06:58:04;;;;;;;7.10;2.00;;;22.50;86.90;;;;;;5467771;26;20340;-57
2024/04/09 07:00:30;;;;;;;6.35;1.83;;;22.50;86.90;;;;;;5469116;26;20034;-58
2024/04/09 07:02:55;;;;;;;6.13;1.90;;;22.50;86.90;;;;;;5467722;26;19995;-58
2024/04/09 07:05:21;;;;;;;7.15;1.80;;;22.50;86.90;;;;;;5469631;26;20524;-57
2024/04/09 07:07:47;;;;;;;6.43;1.60;;;22.50;86.90;;;;;;5467241;26;19999;-57
2024/04/09 07:10:13;;;;;;;7.22;1.70;;;22.60;87.00;;;;;;5466673;26;20026;-57
2024/04/09 07:12:38;;;;;;;5.00;1.55;;;22.60;87.00;;;;;;5463201;26;19995;-57
2024/04/09 07:15:04;;;;;;;5.90;1.70;;;22.50;86.90;;;;;;5467224;26;20013;-58
2024/04/09 07:17:30;;;;;;;7.28;1.85;;;22.60;87.50;;;;;;5461076;26;19998;-57
2024/04/09 07:19:58;;;;;;;5.88;1.60;;;22.60;87.00;;;;;;5462438;26;20457;-58
2024/04/09 07:22:24;;;;;;;7.88;1.80;;;22.50;86.90;;;;;;5464840;26;20014;-57
2024/04/09 07:24:50;;;;;;;6.40;1.70;;;22.50;86.90;;;;;;5462319;26;19998;-57
2024/04/09 07:27:16;;;;;;;7.32;1.75;;;22.50;86.80;;;;;;5464591;26;20002;-58
2024/04/09 07:29:41;;;;;;;5.63;1.83;;;22.50;86.80;;;;;;5466770;26;20013;-57
2024/04/09 07:32:07;;;;;;;5.10;1.67;;;22.50;86.90;;;;;;5461100;26;19995;-58
2024/04/09 07:34:34;;;;;;;4.38;1.40;;;22.50;86.80;;;;;;5468009;26;20024;-58
2024/04/09 07:37:00;;;;;;;5.47;1.48;;;22.50;86.80;;;;;;5462246;26;20053;-58
2024/04/09 07:39:25;;;;;;;7.28;1.80;;;22.50;86.80;;;;;;5462118;26;20010;-58
2024/04/09 07:41:51;;;;;;;5.80;1.60;;;22.50;86.80;;;;;;5465885;26;20785;-57
2024/04/09 07:44:17;;;;;;;4.93;1.40;;;22.50;86.80;;;;;;5465478;26;20069;-57
2024/04/09 07:46:48;;;;;;;7.38;1.67;;;22.40;86.70;;;;;;5462009;26;19999;-57
2024/04/09 07:49:16;;;;;;;6.28;1.50;;;22.40;86.70;;;;;;5464409;26;20476;-57
2024/04/09 07:51:43;;;;;;;5.40;1.60;;;22.40;86.70;;;;;;5462991;26;19994;-57
2024/04/09 07:54:11;;;;;;;4.03;1.30;;;22.40;86.70;;;;;;5463318;26;19999;-57
2024/04/09 07:56:40;;;;;;;4.68;1.30;;;22.40;86.70;;;;;;5466821;26;20009;-58
2024/04/09 07:59:06;;;;;;;6.00;1.40;;;22.40;86.60;;;;;;5462142;26;20003;-57
2024/04/09 08:01:32;;;;;;;4.80;1.40;;;22.40;86.60;;;;;;5467481;26;20822;-57
2024/04/09 08:03:58;;;;;;;4.50;1.38;;;22.40;86.50;;;;;;5460826;26;20013;-57
2024/04/09 08:06:27;;;;;;;5.07;1.50;;;22.30;86.40;;;;;;5470763;26;20355;-57
2024/04/09 08:08:55;;;;;;;6.05;1.50;;;22.40;86.50;;;;;;5479722;26;20001;-57
2024/04/09 08:11:21;;;;;;;4.53;1.40;;;22.30;86.40;;;;;;5462156;26;20848;-57
2024/04/09 08:13:47;;;;;;;5.78;1.60;;;22.30;86.30;;;;;;5465628;26;20003;-58
2024/04/09 08:16:12;;;;;;;6.75;1.50;;;22.30;86.30;;;;;;5464553;26;20664;-57
2024/04/09 08:18:38;;;;;;;5.93;1.45;;;22.30;86.30;;;;;;5461056;26;20258;-57
2024/04/09 08:21:04;;;;;;;8.50;1.70;;;22.30;86.20;;;;;;5459227;26;20003;-57
2024/04/09 08:23:30;;;;;;;3.75;1.25;;;22.30;86.10;;;;;;5467718;26;20522;-57
2024/04/09 08:25:57;;;;;;;4.15;1.40;;;22.30;86.10;;;;;;5460885;26;19999;-57
2024/04/09 08:28:23;;;;;;;4.90;1.25;;;22.20;85.90;;;;;;5467771;26;20013;-57
2024/04/09 08:30:50;;;;;;;4.28;1.35;;;22.20;85.90;;;;;;5461624;26;20038;-57
2024/04/09 08:33:17;;;;;;;4.82;1.42;;;22.20;85.90;;;;;;5466514;26;20075;-57
2024/04/09 08:35:48;;;;;;;4.57;1.30;;;22.20;85.90;;;;;;5468115;26;19998;-57
2024/04/09 08:38:14;;;;;;;4.50;1.10;;;22.20;85.90;;;;;;5463302;26;20006;-57
2024/04/09 08:40:39;;;;;;;4.22;1.20;;;22.10;85.90;;;;;;5464821;26;20005;-57
2024/04/09 08:43:06;;;;;;;4.85;1.33;;;22.20;85.90;;;;;;5465715;26;20407;-57
2024/04/09 08:45:32;;;;;;;5.55;1.35;;;22.10;85.90;;;;;;5462813;26;20075;-57
2024/04/09 08:48:02;;;;;;;5.05;1.50;;;22.10;85.90;;;;;;5459518;26;20002;-57
2024/04/09 08:50:29;;;;;;;4.07;1.10;;;22.10;85.90;;;;;;5467360;26;20446;-57
2024/04/09 08:52:59;;;;;;;3.75;1.10;;;22.10;86.40;;;;;;5457834;26;19994;-57
2024/04/09 08:55:26;;;;;;;4.78;1.20;;;22.10;85.80;;;;;;5453648;26;20445;-57
2024/04/09 08:57:52;;;;;;;4.50;1.13;;;22.10;85.70;;;;;;5460515;26;19999;-57
2024/04/09 09:00:18;;;;;;;4.40;1.10;;;22.10;85.80;;;;;;5465639;26;20463;-57
2024/04/09 09:02:44;;;;;;;4.40;1.25;;;22.10;85.80;;;;;;5463156;26;20537;-57
2024/04/09 09:05:17;;;;;;;4.07;1.30;;;22.10;85.60;;;;;;5465390;26;20006;-57
2024/04/09 09:07:43;;;;;;;4.68;1.10;;;22.10;85.80;;;;;;5467685;26;19995;-57
2024/04/09 09:10:10;;;;;;;4.47;1.30;;;22.10;85.70;;;;;;5463623;26;20411;-57
2024/04/09 09:12:36;;;;;;;3.90;1.25;;;22.10;85.60;;;;;;5463263;26;20091;-57
2024/04/09 09:15:01;;;;;;;4.53;1.27;;;22.10;85.60;;;;;;5465524;26;20469;-57
2024/04/09 09:17:29;;;;;;;6.65;1.73;;;22.00;85.60;;;;;;5461587;26;19999;-58
2024/04/09 09:20:00;;;;;;;3.75;1.30;;;22.10;85.60;;;;;;5466664;26;20005;-57
2024/04/09 09:22:30;;;;;;;6.93;1.45;;;22.10;85.60;;;;;;5460438;26;20009;-58
2024/04/09 09:24:59;;;;;;;3.20;1.20;;;22.00;85.40;;;;;;5466266;26;19994;-57
2024/04/09 09:27:28;;;;;;;5.05;1.40;;;22.00;85.50;;;;;;5461469;26;19999;-57
2024/04/09 09:29:55;;;;;;;4.45;1.25;;;22.00;85.40;;;;;;5466741;26;20075;-58
2024/04/09 09:32:22;;;;;;;4.10;1.15;;;22.00;85.40;;;;;;5461067;26;19999;-57
2024/04/09 09:34:48;;;;;;;4.43;1.25;;;22.00;85.40;;;;;;5466565;26;20002;-57
2024/04/09 09:37:15;;;;;;;4.35;1.30;;;22.00;85.30;;;;;;5466670;26;20445;-57
2024/04/09 09:39:41;;;;;;;3.55;1.25;;;22.00;85.40;;;;;;5462398;26;20456;-58
2024/04/09 09:42:15;;;;;;;5.10;1.35;;;22.00;85.30;;;;;;5462954;26;20071;-57
2024/04/09 09:44:42;;;;;;;5.15;1.50;;;21.90;85.30;;;;;;5462015;26;20003;-57
2024/04/09 09:47:08;;;;;;;4.13;1.30;;;21.90;85.20;;;;;;5459937;26;20011;-57
2024/04/09 09:49:35;;;;;;;2.47;1.00;;;21.90;85.10;;;;;;5470591;26;19998;-57
2024/04/09 09:52:06;;;;;;;5.78;1.20;;;21.90;85.10;;;;;;5469220;26;20010;-57
2024/04/09 09:54:32;;;;;;;4.38;1.10;;;21.90;85.20;;;;;;5468142;26;20026;-57
2024/04/09 09:57:07;;;;;;;3.78;1.20;;;21.90;85.10;;;;;;5463777;26;20271;-57
2024/04/09 09:59:51;;;;;;;4.25;1.20;;;21.80;85.00;;;;;;5467181;26;20761;-58
2024/04/09 10:02:18;;;;;;;4.93;1.10;;;21.80;84.90;;;;;;5457859;26;20078;-58
2024/04/09 10:04:44;;;;;;;3.85;1.40;;;21.80;84.70;;;;;;5463790;26;19995;-57
2024/04/09 10:07:11;;;;;;;4.20;1.23;;;21.80;84.70;;;;;;5475573;26;19994;-57
2024/04/09 10:09:50;;;;;;;3.92;1.20;;;21.80;84.60;;;;;;5465898;26;19994;-57
2024/04/09 10:12:20;;;;;;;3.90;1.10;;;21.80;84.70;;;;;;5454710;26;19994;-57
2024/04/09 10:15:02;;;;;;;4.85;1.20;;;21.80;84.70;;;;;;5464139;26;20007;-57
2024/04/09 10:17:48;;;;;;;4.63;1.33;;;21.80;84.60;;;;;;5455382;26;20010;-57
2024/04/09 10:20:18;;;;;;;2.92;0.98;;;21.80;84.60;;;;;;5469620;26;20593;-57
2024/04/09 10:22:44;;;;;;;3.85;1.20;;;21.70;84.50;;;;;;5461075;26;20067;-57
2024/04/09 10:25:19;;;;;;;3.70;1.10;;;21.70;84.60;;;;;;5468176;26;20010;-57
2024/04/09 10:27:46;;;;;;;3.90;1.15;;;21.70;84.50;;;;;;5454267;26;20033;-57
2024/04/09 10:30:17;;;;;;;5.03;1.08;;;21.70;84.60;;;;;;5463163;26;20668;-57
2024/04/09 10:32:56;;;;;;;2.83;0.90;;;21.70;84.50;;;;;;5468378;26;20001;-57
2024/04/09 10:35:23;;;;;;;5.97;1.20;;;21.70;84.50;;;;;;5464301;26;20026;-57
2024/04/09 10:37:52;;;;;;;3.60;1.10;;;21.70;84.40;;;;;;5469818;26;20013;-57
2024/04/09 10:40:18;;;;;;;5.03;1.10;;;21.70;84.50;;;;;;5470354;26;19999;-57
2024/04/09 10:42:44;;;;;;;3.83;1.10;;;21.70;84.40;;;;;;5463108;26;20034;-57
2024/04/09 10:45:11;;;;;;;4.15;1.02;;;21.70;84.20;;;;;;5468113;26;19998;-57
2024/04/09 10:47:38;;;;;;;2.72;1.00;;;21.80;84.30;;;;;;5461875;26;20010;-57
2024/04/09 10:50:04;;;;;;;3.13;1.10;;;21.70;84.30;;;;;;5464703;26;20074;-57
2024/04/09 10:52:30;;;;;;;4.25;1.23;;;21.70;84.20;;;;;;5463737;26;19995;-57
2024/04/09 10:54:55;;;;;;;3.63;1.00;;;21.80;84.70;;;;;;5467367;26;20326;-57
2024/04/09 10:57:21;;;;;;;3.70;1.20;;;21.70;84.10;;;;;;5463876;26;20017;-57
2024/04/09 10:59:48;;;;;;;4.35;1.23;;;21.80;84.10;;;;;;5468142;26;20013;-57
2024/04/09 11:02:16;;;;;;;5.15;1.10;;;21.80;84.10;;;;;;5461993;26;20075;-57
2024/04/09 11:04:44;;;;;;;4.28;1.10;;;21.70;84.10;;;;;;5462385;26;19999;-57
2024/04/09 11:07:09;;;;;;;3.13;1.10;;;21.70;84.00;;;;;;5475889;26;20002;-57
2024/04/09 11:09:35;;;;;;;4.28;1.02;;;21.80;84.10;;;;;;5464117;26;20018;-57
2024/04/09 11:12:02;;;;;;;2.67;1.00;;;21.80;84.00;;;;;;5465423;26;20346;-57
2024/04/09 11:14:28;;;;;;;5.75;1.20;;;21.80;84.00;;;;;;5465238;26;20338;-57
2024/04/09 11:16:56;;;;;;;3.10;1.08;;;21.80;83.90;;;;;;5461635;26;19999;-57
2024/04/09 11:19:29;;;;;;;3.22;1.08;;;21.70;83.90;;;;;;5470339;26;20544;-57
2024/04/09 11:21:54;;;;;;;2.30;0.90;;;21.70;83.80;;;;;;5461836;26;20007;-57
2024/04/09 11:24:23;;;;;;;4.65;1.00;;;21.70;83.80;;;;;;5467360;26;20017;-57
2024/04/09 11:26:48;;;;;;;3.22;1.00;;;21.70;84.30;;;;;;5463630;26;20013;-57
2024/04/09 11:29:21;;;;;;;3.30;1.00;;;21.70;83.70;;;;;;5467186;26;20345;-57
2024/04/09 11:31:49;;;;;;;2.75;1.00;;;21.70;83.60;;;;;;5463417;26;19995;-57
2024/04/09 11:34:25;;;;;;;4.28;1.10;;;21.70;83.60;;;;;;5467627;26;20010;-57
2024/04/09 11:36:51;;;;;;;4.05;1.10;;;21.70;83.40;;;;;;5468002;26;20003;-57
2024/04/09 11:39:22;;;;;;;3.10;0.90;;;21.70;83.40;;;;;;5467667;26;20338;-57
2024/04/09 11:41:49;;;;;;;4.53;1.00;;;21.70;83.30;;;;;;5468127;26;20008;-57
2024/04/09 11:44:24;;;;;;;3.75;1.10;;;21.70;83.30;;;;;;5462001;26;19999;-57
2024/04/09 11:46:50;;;;;;;3.17;1.00;;;21.70;83.30;;;;;;5463665;26;19999;-57
2024/04/09 11:49:16;;;;;;;4.25;1.20;;;21.70;83.10;;;;;;5471104;26;20496;-57
2024/04/09 11:51:42;;;;;;;2.75;1.02;;;21.70;83.10;;;;;;5465042;26;20010;-58
2024/04/09 11:54:08;;;;;;;3.58;1.20;;;21.60;83.00;;;;;;5461030;26;20077;-57
2024/04/09 11:56:38;;;;;;;3.20;0.95;;;21.60;82.90;;;;;;5467854;26;20419;-57
2024/04/09 11:59:05;;;;;;;3.03;0.90;;;21.60;82.90;;;;;;5461011;26;20665;-57
2024/04/09 12:01:31;;;;;;;3.20;1.00;;;21.60;82.80;;;;;;5466463;26;20094;-58
2024/04/09 12:03:57;;;;;;;2.85;0.90;;;21.60;82.90;;;;;;5463676;26;20005;-57
2024/04/09 12:06:25;;;;;;;4.38;1.00;;;21.60;82.90;;;;;;5470853;26;20071;-57
2024/04/09 12:08:53;;;;;;;3.78;1.00;;;21.60;82.90;;;;;;5474613;26;20033;-57
2024/04/09 12:11:18;;;;;;;3.25;0.95;;;21.60;82.80;;;;;;5471211;26;20075;-57
2024/04/09 12:13:47;;;;;;;2.58;0.90;;;21.60;82.70;;;;;;5462168;26;20354;-57
2024/04/09 12:16:12;;;;;;;3.53;1.00;;;21.60;82.70;;;;;;5465826;26;20370;-57
2024/04/09 12:18:38;;;;;;;4.65;1.30;;;21.60;82.70;;;;;;5460807;26;19995;-57
2024/04/09 12:21:04;;;;;;;2.95;1.10;;;21.60;82.70;;;;;;5458071;26;19999;-57
2024/04/09 12:23:29;;;;;;;2.83;0.82;;;21.60;82.60;;;;;;5467603;26;20009;-57
2024/04/09 12:25:59;;;;;;;4.88;1.00;;;21.60;82.20;;;;;;5463453;26;20654;-57
2024/04/09 12:28:24;;;;;;;3.97;1.03;;;21.60;82.20;;;;;;5466182;26;19999;-57
2024/04/09 12:30:51;;;;;;;4.53;1.00;;;21.60;82.10;;;;;;5464828;26;20326;-57
2024/04/09 12:33:19;;;;;;;2.55;0.88;;;21.60;81.90;;;;;;5463141;26;20011;-57
2024/04/09 12:35:47;;;;;;;3.92;1.00;;;21.60;81.70;;;;;;5467976;26;20397;-57
2024/04/09 12:38:14;;;;;;;2.83;0.90;;;21.60;81.70;;;;;;5466074;26;20377;-57
2024/04/09 12:40:39;;;;;;;2.97;1.10;;;21.60;81.70;;;;;;5462784;26;20007;-57
2024/04/09 12:43:05;;;;;;;3.47;1.00;;;21.60;81.70;;;;;;5467413;26;19998;-57
2024/04/09 12:45:31;;;;;;;3.58;1.10;;;21.60;81.40;;;;;;5462438;26;20071;-57